Time;durP1;ratioP1;P1;durP2;ratioP2;P2;SDS_P1;SDS_P2;PMS_P1;PMS_P2;Temp;Humidity;BMP_temperature;BMP_pressure;BME280_temperature;BME280_humidity;BME280_pressure;Samples;Min_cycle;Max_cycle;Signal;HPM_P1;HPM_P2
2021/10/12 00:01:07;;;;;;;;;2.33;2.33;;;;;18.74;48.07;102464.47;5057477;28;45504;-47
2021/10/12 00:03:32;;;;;;;;;4.00;4.00;;;;;18.74;48.19;102464.47;5057490;28;45345;-47
2021/10/12 00:05:59;;;;;;;;;6.00;3.67;;;;;18.73;48.25;102444.91;5057165;28;45414;-48
2021/10/12 00:08:24;;;;;;;;;2.00;2.00;;;;;18.74;48.04;102453.81;5039101;28;45513;-46
2021/10/12 00:10:50;;;;;;;;;2.67;2.67;;;;;18.74;48.22;102459.13;5057099;28;45385;-46
2021/10/12 00:13:15;;;;;;;;;3.67;3.67;;;;;18.73;48.28;102452.91;5057549;28;45192;-48
2021/10/12 00:15:40;;;;;;;;;6.67;3.33;;;;;18.73;48.17;102452.91;5057146;28;45442;-52
2021/10/12 00:18:06;;;;;;;;;7.67;4.67;;;;;18.73;48.11;102458.25;5056845;28;45283;-46
2021/10/12 00:20:32;;;;;;;;;3.67;3.67;;;;;18.70;48.02;102447.53;5057051;28;45292;-48
2021/10/12 00:22:57;;;;;;;;;3.67;2.33;;;;;18.73;48.12;102450.25;5057070;28;45486;-49
2021/10/12 00:25:22;;;;;;;;;2.33;2.33;;;;;18.72;48.16;102445.78;5056827;28;46250;-51
2021/10/12 00:27:49;;;;;;;;;4.33;3.33;;;;;18.73;48.25;102452.00;5057128;28;45325;-48
2021/10/12 00:30:15;;;;;;;;;3.00;2.67;;;;;18.73;47.96;102468.00;5057048;28;45271;-50
2021/10/12 00:32:41;;;;;;;;;4.33;2.67;;;;;18.73;48.12;102457.34;5056813;28;45430;-52
2021/10/12 00:35:07;;;;;;;;;4.00;2.67;;;;;18.73;48.00;102444.03;5056008;28;45969;-53
2021/10/12 00:37:32;;;;;;;;;3.67;2.67;;;;;18.73;48.22;102452.00;5056624;28;45355;-48
2021/10/12 00:39:58;;;;;;;;;3.33;3.33;;;;;18.71;48.01;102452.00;5055876;28;45328;-46
2021/10/12 00:42:23;;;;;;;;;3.33;3.33;;;;;18.72;47.75;102448.44;5056745;28;45495;-51
2021/10/12 00:44:50;;;;;;;;;3.67;3.67;;;;;18.71;47.86;102443.09;5056699;28;46289;-49
2021/10/12 00:47:15;;;;;;;;;6.00;3.67;;;;;18.72;47.98;102445.78;5056833;28;45438;-49
2021/10/12 00:49:40;;;;;;;;;5.33;3.67;;;;;18.72;48.07;102440.44;5056485;28;45297;-50
2021/10/12 00:52:06;;;;;;;;;3.67;3.00;;;;;18.72;48.27;102431.56;5056679;28;45315;-48
2021/10/12 00:54:31;;;;;;;;;3.67;3.67;;;;;18.71;47.75;102421.78;5056353;28;47082;-46
2021/10/12 00:56:57;;;;;;;;;3.00;3.00;;;;;18.72;47.74;102423.56;5056421;28;45391;-48
2021/10/12 00:59:22;;;;;;;;;4.00;3.67;;;;;18.71;48.08;102428.03;5056533;28;45355;-48
2021/10/12 01:01:48;;;;;;;;;4.67;3.33;;;;;18.71;47.91;102427.13;5056840;28;45459;-50
2021/10/12 01:04:13;;;;;;;;;4.33;2.67;;;;;18.71;47.77;102420.03;5056548;28;47287;-52
2021/10/12 01:06:39;;;;;;;;;4.67;2.67;;;;;18.71;47.86;102412.03;5055420;28;45647;-52
2021/10/12 01:09:05;;;;;;;;;4.67;3.67;;;;;18.71;47.94;102406.72;5056285;28;45459;-46
2021/10/12 01:11:33;;;;;;;;;2.67;2.67;;;;;18.71;47.96;102411.16;5056266;28;45374;-53
2021/10/12 01:14:01;;;;;;;;;5.00;4.00;;;;;18.71;47.82;102412.03;5056139;28;46494;-50
2021/10/12 01:16:27;;;;;;;;;7.00;3.33;;;;;18.72;47.96;102402.25;5056186;28;45217;-47
2021/10/12 01:19:06;;;;;;;;;4.00;2.67;;;;;18.70;47.65;102399.59;5056272;28;45263;-48
2021/10/12 01:21:44;;;;;;;;;6.00;3.00;;;;;18.71;47.68;102406.72;5056274;28;45507;-55
2021/10/12 01:24:10;;;;;;;;;4.33;3.67;;;;;18.71;47.77;102406.72;5056090;28;47179;-49
2021/10/12 01:26:38;;;;;;;;;4.67;4.67;;;;;18.70;47.68;102404.00;5055954;28;45453;-46
2021/10/12 01:29:03;;;;;;;;;4.67;3.33;;;;;18.71;47.90;102395.16;5056193;28;45261;-48
2021/10/12 01:31:29;;;;;;;;;3.67;2.67;;;;;18.70;47.85;102383.59;5056113;28;45363;-47
2021/10/12 01:33:55;;;;;;;;;7.00;4.33;;;;;18.69;47.65;102378.28;5055674;28;46112;-49
2021/10/12 01:36:21;;;;;;;;;3.67;3.67;;;;;18.69;47.68;102375.59;5055905;28;45429;-46
2021/10/12 01:38:46;;;;;;;;;4.00;4.00;;;;;18.69;47.81;102370.28;5056339;28;45381;-50
2021/10/12 01:41:13;;;;;;;;;5.00;2.67;;;;;18.69;47.71;102359.63;5056324;28;45335;-46
2021/10/12 01:43:38;;;;;;;;;4.00;4.00;;;;;18.70;47.88;102356.06;5055692;28;46277;-49
2021/10/12 01:46:05;;;;;;;;;3.67;3.67;;;;;18.70;47.68;102362.28;5055897;28;45395;-47
2021/10/12 01:48:36;;;;;;;;;4.67;3.33;;;;;18.68;47.94;102352.50;5055792;28;45514;-46
2021/10/12 01:51:03;;;;;;;;;5.00;3.67;;;;;18.68;47.72;102353.41;5057560;28;45417;-50
2021/10/12 01:53:29;;;;;;;;;3.33;3.33;;;;;18.70;47.65;102361.41;5059086;28;46222;-47
2021/10/12 01:55:55;;;;;;;;;5.33;4.33;;;;;18.68;47.82;102358.72;5059135;28;45343;-50
2021/10/12 01:58:20;;;;;;;;;4.33;2.33;;;;;18.69;47.70;102370.28;5059449;28;45490;-49
2021/10/12 02:00:46;;;;;;;;;3.00;2.33;;;;;18.69;47.43;102367.63;5059675;28;45315;-50
2021/10/12 02:03:11;;;;;;;;;3.00;2.33;;;;;18.69;47.69;102371.19;5058960;28;45722;-48
2021/10/12 02:05:37;;;;;;;;;3.33;3.33;;;;;18.68;47.66;102363.16;5059111;28;45200;-46
2021/10/12 02:08:03;;;;;;;;;5.67;3.33;;;;;18.68;47.80;102368.47;5059166;28;45395;-53
2021/10/12 02:10:28;;;;;;;;;3.00;2.67;;;;;18.66;47.32;102376.47;5059474;28;45620;-46
2021/10/12 02:12:54;;;;;;;;;7.00;4.00;;;;;18.67;47.63;102367.63;5057903;28;46079;-48
2021/10/12 02:15:19;;;;;;;;;4.33;3.67;;;;;18.67;47.80;102364.94;5059134;28;45327;-47
2021/10/12 02:17:45;;;;;;;;;3.33;2.33;;;;;18.68;47.47;102352.50;5059320;28;45410;-52
2021/10/12 02:20:11;;;;;;;;;3.67;3.67;;;;;18.67;47.70;102354.28;5058863;28;45280;-50
2021/10/12 02:22:38;;;;;;;;;5.33;3.67;;;;;18.68;47.58;102357.81;5058631;28;46343;-49
2021/10/12 02:25:05;;;;;;;;;4.33;2.67;;;;;18.66;47.57;102343.59;5058779;28;45382;-54
2021/10/12 02:27:31;;;;;;;;;2.33;2.33;;;;;18.67;47.61;102334.75;5058971;28;45316;-51
2021/10/12 02:29:56;;;;;;;;;3.67;3.67;;;;;18.68;47.46;102326.75;5058932;28;46161;-50
2021/10/12 02:32:21;;;;;;;;;4.33;2.67;;;;;18.67;47.70;102310.78;5058345;28;46910;-48
2021/10/12 02:34:47;;;;;;;;;4.00;2.67;;;;;18.66;47.67;102323.19;5058454;28;45357;-53
2021/10/12 02:37:13;;;;;;;;;2.67;2.67;;;;;18.68;47.72;102352.50;5058698;28;45199;-49
2021/10/12 02:39:38;;;;;;;;;9.67;4.33;;;;;18.67;47.49;102345.41;5058689;28;45452;-55
2021/10/12 02:42:05;;;;;;;;;4.67;3.67;;;;;18.66;47.44;102355.16;5058698;28;47437;-46
2021/10/12 02:44:31;;;;;;;;;4.00;3.33;;;;;18.66;47.62;102355.16;5058402;28;45472;-52
2021/10/12 02:46:56;;;;;;;;;3.67;2.67;;;;;18.66;47.23;102340.94;5058522;28;45417;-48
2021/10/12 02:49:22;;;;;;;;;4.33;3.00;;;;;18.66;47.42;102339.16;5058627;28;45341;-46
2021/10/12 02:51:48;;;;;;;;;6.67;3.00;;;;;18.65;47.37;102323.19;5058197;28;47498;-46
2021/10/12 02:54:13;;;;;;;;;3.00;2.00;;;;;18.65;47.38;102321.41;5058194;28;45334;-52
2021/10/12 02:56:39;;;;;;;;;4.33;4.33;;;;;18.65;47.47;102326.75;5058428;28;45417;-51
2021/10/12 02:59:05;;;;;;;;;4.33;3.00;;;;;18.65;47.30;102333.84;5058470;28;45307;-48
2021/10/12 03:01:30;;;;;;;;;3.33;3.00;;;;;18.65;47.32;102341.84;5058049;28;47233;-50
2021/10/12 03:03:56;;;;;;;;;3.67;2.00;;;;;18.65;47.41;102329.41;5057662;28;45474;-49
2021/10/12 03:06:21;;;;;;;;;3.33;3.33;;;;;18.65;47.29;102325.84;5057222;28;45299;-60
2021/10/12 03:08:47;;;;;;;;;2.67;2.67;;;;;18.63;47.30;102324.03;5058373;28;45318;-52
2021/10/12 03:11:12;;;;;;;;;5.67;4.00;;;;;18.65;47.30;102341.84;5057874;28;46328;-50
2021/10/12 03:13:38;;;;;;;;;4.67;3.00;;;;;18.63;47.33;102328.50;5058236;28;45333;-49
2021/10/12 03:16:04;;;;;;;;;6.67;3.67;;;;;18.63;47.27;102339.16;5058296;28;45232;-46
2021/10/12 03:18:31;;;;;;;;;3.00;3.00;;;;;18.63;47.53;102342.69;5058533;28;45172;-51
2021/10/12 03:20:57;;;;;;;;;6.00;4.00;;;;;18.62;47.13;102327.59;5057393;28;47483;-52
2021/10/12 03:23:23;;;;;;;;;3.00;3.00;;;;;18.62;47.48;102324.94;5058001;28;45318;-50
2021/10/12 03:25:48;;;;;;;;;2.33;2.33;;;;;18.62;47.41;102313.38;5057960;28;45311;-45
2021/10/12 03:28:14;;;;;;;;;3.33;2.67;;;;;18.62;47.58;102306.31;5058180;28;45554;-46
2021/10/12 03:30:39;;;;;;;;;4.67;2.67;;;;;18.62;47.47;102284.09;5057881;28;46025;-51
2021/10/12 03:33:05;;;;;;;;;4.33;4.33;;;;;18.62;47.51;102292.97;5057764;28;45312;-48
2021/10/12 03:35:34;;;;;;;;;3.33;3.33;;;;;18.62;47.18;102300.97;5057793;28;45395;-50
2021/10/12 03:38:00;;;;;;;;;4.00;3.67;;;;;18.61;47.23;102293.84;5057992;28;45310;-53
2021/10/12 03:40:26;;;;;;;;;3.00;1.67;;;;;18.62;47.23;102305.41;5057678;28;46545;-49
2021/10/12 03:42:52;;;;;;;;;4.33;3.00;;;;;18.61;47.39;102307.16;5039441;28;46323;-46
2021/10/12 03:45:17;;;;;;;;;6.00;3.00;;;;;18.61;47.32;102306.28;5057813;28;45343;-46
2021/10/12 03:47:43;;;;;;;;;3.33;3.33;;;;;18.60;47.24;102308.06;5058034;28;45287;-48
2021/10/12 03:50:09;;;;;;;;;3.33;3.33;;;;;18.61;47.02;102309.81;5057339;28;46292;-47
2021/10/12 03:52:35;;;;;;;;;3.00;3.00;;;;;18.61;47.23;102315.16;5039280;28;45477;-49
2021/10/12 03:55:01;;;;;;;;;2.67;2.67;;;;;18.61;47.41;102301.84;5056574;28;45424;-47
2021/10/12 03:57:26;;;;;;;;;4.00;2.33;;;;;18.59;47.28;102295.59;5057505;28;45490;-49
2021/10/12 03:59:51;;;;;;;;;3.33;3.33;;;;;18.60;47.40;102301.81;5057245;28;46501;-46
2021/10/12 04:02:17;;;;;;;;;4.67;2.67;;;;;18.60;47.05;102301.81;5057603;28;45397;-49
2021/10/12 04:04:42;;;;;;;;;5.00;3.00;;;;;18.59;47.20;102300.94;5057632;28;45326;-48
2021/10/12 04:07:07;;;;;;;;;5.00;2.33;;;;;18.59;47.04;102300.06;5057329;28;45466;-47
2021/10/12 04:09:33;;;;;;;;;5.00;4.00;;;;;18.59;47.15;102300.94;5057154;28;46164;-48
2021/10/12 04:11:58;;;;;;;;;2.33;2.33;;;;;18.60;47.40;102307.16;5057062;28;45282;-50
2021/10/12 04:14:24;;;;;;;;;3.00;3.00;;;;;18.58;47.02;102299.16;5056157;28;45380;-50
2021/10/12 04:16:49;;;;;;;;;3.00;3.00;;;;;18.57;47.11;102294.69;5057475;28;45308;-53
2021/10/12 04:19:15;;;;;;;;;2.67;2.67;;;;;18.58;47.06;102293.84;5056979;28;46245;-47
2021/10/12 04:21:40;;;;;;;;;4.67;2.67;;;;;18.58;47.30;102275.19;5057243;28;45471;-50
2021/10/12 04:24:06;;;;;;;;;6.67;3.33;;;;;18.58;47.05;102275.19;5056189;28;45405;-47
2021/10/12 04:26:31;;;;;;;;;5.33;3.33;;;;;18.58;47.07;102277.84;5057084;28;45387;-48
2021/10/12 04:28:57;;;;;;;;;3.67;3.67;;;;;18.58;47.21;102296.50;5056802;28;46862;-46
2021/10/12 04:31:23;;;;;;;;;4.00;3.00;;;;;18.59;47.15;102297.41;5056616;28;45414;-47
2021/10/12 04:33:48;;;;;;;;;5.67;2.67;;;;;18.58;46.88;102309.81;5057055;28;45410;-48
2021/10/12 04:36:13;;;;;;;;;4.00;3.00;;;;;18.59;46.97;102310.72;5057058;28;45534;-47
2021/10/12 04:38:39;;;;;;;;;3.33;3.33;;;;;18.58;46.90;102295.59;5056795;28;45394;-47
2021/10/12 04:41:04;;;;;;;;;3.00;3.00;;;;;18.58;46.95;102298.25;5056723;28;45453;-47
2021/10/12 04:43:30;;;;;;;;;3.00;3.00;;;;;18.57;46.97;102296.50;5056563;28;45367;-47
2021/10/12 04:45:55;;;;;;;;;6.33;3.00;;;;;18.58;46.81;102293.84;5039028;28;45443;-49
2021/10/12 04:48:21;;;;;;;;;5.33;2.33;;;;;18.57;46.73;102281.38;5056421;28;46585;-50
2021/10/12 04:50:46;;;;;;;;;5.00;4.33;;;;;18.55;46.75;102280.47;5056877;28;45288;-45
2021/10/12 04:53:12;;;;;;;;;2.67;2.00;;;;;18.56;46.90;102290.28;5056714;28;45284;-50
2021/10/12 04:55:41;;;;;;;;;4.00;4.00;;;;;18.55;46.98;102296.47;5056584;28;45436;-53
2021/10/12 04:58:08;;;;;;;;;3.00;3.00;;;;;18.56;46.68;102297.34;5056499;28;47240;-48
2021/10/12 05:00:34;;;;;;;;;3.33;3.33;;;;;18.56;47.13;102302.69;5056261;28;45550;-46
2021/10/12 05:03:00;;;;;;;;;3.67;2.33;;;;;18.56;46.92;102297.34;5056517;28;45366;-44
2021/10/12 05:05:25;;;;;;;;;4.00;2.67;;;;;18.54;46.89;102284.03;5056648;28;45315;-50
2021/10/12 05:07:50;;;;;;;;;2.67;1.67;;;;;18.55;46.89;102291.13;5056223;28;46986;-49
2021/10/12 05:10:16;;;;;;;;;4.00;3.00;;;;;18.56;46.98;102294.69;5056562;28;45387;-51
2021/10/12 05:12:41;;;;;;;;;3.33;3.00;;;;;18.56;46.88;102289.38;5056256;28;45330;-48
2021/10/12 05:15:07;;;;;;;;;3.67;3.00;;;;;18.55;47.25;102292.94;5056689;28;45267;-47
2021/10/12 05:17:37;;;;;;;;;2.33;2.33;;;;;18.55;46.81;102304.44;5056158;28;46167;-49
2021/10/12 05:20:05;;;;;;;;;4.00;4.00;;;;;18.56;46.97;102297.34;5056174;28;45367;-49
2021/10/12 05:22:31;;;;;;;;;3.00;3.00;;;;;18.55;46.82;102287.59;5056350;28;45224;-56
2021/10/12 05:24:57;;;;;;;;;2.67;2.33;;;;;18.54;46.76;102281.38;5056472;28;45511;-53
2021/10/12 05:27:22;;;;;;;;;4.00;3.00;;;;;18.54;46.88;102284.03;5059516;28;45960;-48
2021/10/12 05:29:47;;;;;;;;;5.00;2.67;;;;;18.55;46.99;102287.59;5059712;28;45478;-47
2021/10/12 05:32:13;;;;;;;;;2.67;2.67;;;;;18.54;46.73;102292.03;5059637;28;45201;-50
2021/10/12 05:34:38;;;;;;;;;3.00;2.00;;;;;18.53;47.07;102279.56;5041588;28;45225;-52
2021/10/12 05:37:04;;;;;;;;;3.00;3.00;;;;;18.52;46.94;102264.50;5059730;28;46072;-48
2021/10/12 05:39:29;;;;;;;;;4.33;3.00;;;;;18.53;46.85;102266.25;5059632;28;45226;-49
2021/10/12 05:41:56;;;;;;;;;6.33;4.67;;;;;18.54;46.77;102285.81;5058672;28;45421;-51
2021/10/12 05:44:21;;;;;;;;;4.67;3.33;;;;;18.54;46.86;102297.34;5059617;28;45358;-47
2021/10/12 05:46:46;;;;;;;;;5.00;2.00;;;;;18.52;47.16;102286.69;5059254;28;47085;-47
2021/10/12 05:49:11;;;;;;;;;2.33;2.33;;;;;18.53;47.03;102274.25;5059609;28;45424;-52
2021/10/12 05:51:37;;;;;;;;;4.00;2.00;;;;;18.53;46.76;102284.91;5059394;28;45373;-47
2021/10/12 05:54:02;;;;;;;;;4.67;3.00;;;;;18.53;47.14;102292.88;5059613;28;45386;-50
2021/10/12 05:56:37;;;;;;;;;4.00;4.00;;;;;18.53;47.00;102292.88;5058954;28;46912;-47
2021/10/12 05:59:02;;;;;;;;;3.67;3.67;;;;;18.53;47.15;102276.91;5059239;28;45330;-48
2021/10/12 06:01:28;;;;;;;;;2.33;2.33;;;;;18.52;47.11;102275.13;5059245;28;45395;-56
2021/10/12 06:03:53;;;;;;;;;2.00;2.00;;;;;18.52;47.12;102293.78;5059293;28;45377;-54
2021/10/12 06:06:20;;;;;;;;;5.00;2.00;;;;;18.52;47.23;102288.47;5059194;28;47196;-54
2021/10/12 06:08:45;;;;;;;;;4.00;3.00;;;;;18.51;47.28;102282.22;5059065;28;45344;-51
2021/10/12 06:11:11;;;;;;;;;7.33;2.67;;;;;18.51;47.41;102271.56;5058866;28;45310;-50
2021/10/12 06:13:38;;;;;;;;;2.67;2.67;;;;;18.51;47.21;102274.25;5059222;28;45299;-50
2021/10/12 06:16:04;;;;;;;;;3.00;2.33;;;;;18.51;47.21;102274.25;5058753;28;47264;-47
2021/10/12 06:18:29;;;;;;;;;2.67;2.67;;;;;18.51;47.34;102276.00;5058240;28;45612;-49
2021/10/12 06:20:55;;;;;;;;;3.67;1.67;;;;;18.51;47.45;102281.31;5058890;28;45299;-48
2021/10/12 06:23:22;;;;;;;;;3.67;2.33;;;;;18.49;48.78;102283.09;5058980;28;45385;-56
2021/10/12 06:25:48;;;;;;;;;3.00;3.00;;;;;18.52;49.66;102275.13;5058471;28;47254;-51
2021/10/12 06:28:16;;;;;;;;;6.67;3.67;;;;;18.52;49.94;102277.81;5058539;28;45508;-51
2021/10/12 06:30:42;;;;;;;;;3.00;3.00;;;;;18.54;50.17;102280.47;5058835;28;45231;-53
2021/10/12 06:33:09;;;;;;;;;2.00;2.00;;;;;18.55;50.20;102276.94;5058508;28;45280;-55
2021/10/12 06:35:34;;;;;;;;;3.00;1.67;;;;;18.56;50.14;102284.94;5058425;28;45515;-56
2021/10/12 06:38:02;;;;;;;;;4.00;2.00;;;;;18.55;50.19;102276.94;5057450;28;45265;-51
2021/10/12 06:40:29;;;;;;;;;4.67;3.00;;;;;18.55;50.71;102280.47;5057991;28;45358;-59
2021/10/12 06:42:56;;;;;;;;;2.67;2.67;;;;;18.56;50.79;102270.72;5058719;28;45355;-53
2021/10/12 06:45:22;;;;;;;;;2.00;2.00;;;;;18.56;50.87;102268.97;5058438;28;46850;-59
2021/10/12 06:47:49;;;;;;;;;4.33;3.33;;;;;18.57;50.46;102277.84;5058630;28;45360;-61
2021/10/12 06:50:16;;;;;;;;;3.67;2.67;;;;;18.57;50.95;102281.38;5058650;28;45335;-55
2021/10/12 06:52:42;;;;;;;;;1.33;1.33;;;;;18.56;50.52;102290.28;5058588;28;45270;-51
2021/10/12 06:55:08;;;;;;;;;3.33;2.00;;;;;18.57;50.49;102292.03;5058047;28;46091;-60
2021/10/12 06:57:35;;;;;;;;;3.67;2.33;;;;;18.56;50.42;102286.69;5058246;28;45434;-53
2021/10/12 07:00:01;;;;;;;;;3.67;2.00;;;;;18.56;50.15;102276.94;5058286;28;45296;-51
2021/10/12 07:02:26;;;;;;;;;4.33;3.33;;;;;18.57;50.06;102293.84;5058534;28;45310;-57
2021/10/12 07:04:51;;;;;;;;;3.67;3.67;;;;;18.56;50.39;102295.59;5058380;28;46133;-53
2021/10/12 07:07:17;;;;;;;;;4.33;4.33;;;;;18.57;49.99;102291.16;5058377;28;45215;-49
2021/10/12 07:09:42;;;;;;;;;4.33;2.67;;;;;18.55;50.12;102272.50;5058360;28;45416;-49
2021/10/12 07:12:08;;;;;;;;;2.67;2.67;;;;;18.55;49.95;102271.63;5058222;28;45313;-47
2021/10/12 07:14:34;;;;;;;;;3.00;3.00;;;;;18.55;49.84;102276.94;5056969;28;46168;-54
2021/10/12 07:16:59;;;;;;;;;2.33;2.33;;;;;18.54;49.73;102265.41;5058129;28;45489;-59
2021/10/12 07:19:26;;;;;;;;;4.00;3.00;;;;;18.54;49.65;102265.41;5058090;28;45504;-56
2021/10/12 07:21:55;;;;;;;;;4.67;4.67;;;;;18.54;49.58;102260.06;5058466;28;45541;-56
2021/10/12 07:24:22;;;;;;;;;3.33;3.33;;;;;18.54;49.50;102256.50;5057808;28;47184;-63
2021/10/12 07:26:49;;;;;;;;;4.33;3.33;;;;;18.53;49.23;102252.94;5057989;28;45304;-59
2021/10/12 07:29:14;;;;;;;;;4.67;2.67;;;;;18.54;49.09;102253.84;5057762;28;45240;-55
2021/10/12 07:31:40;;;;;;;;;3.33;3.33;;;;;18.54;49.10;102251.19;5057679;28;45310;-51
2021/10/12 07:34:08;;;;;;;;;4.67;4.67;;;;;18.52;49.11;102252.06;5057471;28;45487;-60
2021/10/12 07:36:34;;;;;;;;;4.67;4.00;;;;;18.52;48.82;102251.19;5058035;28;45513;-57
2021/10/12 07:39:00;;;;;;;;;5.00;4.33;;;;;18.52;49.11;102254.75;5057841;28;45354;-47
2021/10/12 07:41:25;;;;;;;;;7.00;5.67;;;;;18.52;49.23;102257.41;5057754;28;45228;-61
2021/10/12 07:43:51;;;;;;;;;6.00;5.33;;;;;18.52;48.93;102252.06;5057640;28;46382;-54
2021/10/12 07:46:16;;;;;;;;;4.33;4.33;;;;;18.52;48.59;102251.19;5057859;28;45268;-60
2021/10/12 07:48:42;;;;;;;;;5.33;4.33;;;;;18.51;48.86;102252.03;5057515;28;45302;-56
2021/10/12 07:51:07;;;;;;;;;5.00;5.00;;;;;18.51;48.56;102257.38;5057768;28;45526;-50
2021/10/12 07:53:36;;;;;;;;;4.67;4.67;;;;;18.50;48.62;102258.25;5057170;28;46107;-50
2021/10/12 07:56:05;;;;;;;;;6.67;4.00;;;;;18.50;48.21;102253.84;5057244;28;45353;-51
2021/10/12 07:58:31;;;;;;;;;7.00;5.00;;;;;18.50;48.52;102253.84;5057327;28;45314;-59
2021/10/12 08:00:56;;;;;;;;;5.00;4.67;;;;;18.50;48.40;102252.94;5057369;28;45498;-54
2021/10/12 08:03:22;;;;;;;;;4.00;3.67;;;;;18.49;48.53;102257.34;5057166;28;46289;-57
2021/10/12 08:05:47;;;;;;;;;5.00;4.00;;;;;18.49;48.38;102251.13;5057447;28;45371;-54
2021/10/12 08:08:13;;;;;;;;;7.33;5.00;;;;;18.48;48.41;102252.94;5057198;28;45261;-55
2021/10/12 08:10:39;;;;;;;;;7.00;5.67;;;;;18.49;48.28;102251.13;5057360;28;45229;-58
2021/10/12 08:13:07;;;;;;;;;5.33;5.33;;;;;18.48;48.49;102244.94;5056863;28;47144;-47
2021/10/12 08:15:33;;;;;;;;;5.33;5.33;;;;;18.48;48.37;102239.63;5057147;28;45428;-49
2021/10/12 08:17:59;;;;;;;;;5.67;5.00;;;;;18.49;48.41;102245.81;5057119;28;45304;-51
2021/10/12 08:20:25;;;;;;;;;4.67;4.67;;;;;18.48;48.21;102244.03;5057070;28;45410;-49
2021/10/12 08:22:50;;;;;;;;;6.33;5.67;;;;;18.48;48.39;102244.03;5057023;28;45441;-48
2021/10/12 08:25:16;;;;;;;;;4.00;4.00;;;;;18.46;48.07;102238.72;5057088;28;45310;-48
2021/10/12 08:27:42;;;;;;;;;6.67;5.00;;;;;18.47;48.01;102243.16;5057007;28;45199;-53
2021/10/12 08:30:10;;;;;;;;;6.00;4.00;;;;;18.46;48.20;102246.69;5057155;28;45250;-48
2021/10/12 08:32:36;;;;;;;;;5.00;5.00;;;;;18.46;48.27;102243.13;5038339;28;47313;-48
2021/10/12 08:35:03;;;;;;;;;7.00;7.00;;;;;18.47;48.10;102247.56;5056577;28;45433;-53
2021/10/12 08:37:29;;;;;;;;;6.67;5.00;;;;;18.46;48.31;102243.13;5056678;28;45407;-47
2021/10/12 08:39:54;;;;;;;;;5.67;5.67;;;;;18.47;48.08;102226.25;5056877;28;45380;-49
2021/10/12 08:42:28;;;;;;;;;4.67;4.67;;;;;18.45;48.24;102223.59;5056560;28;47135;-46
2021/10/12 08:44:56;;;;;;;;;5.00;5.00;;;;;18.46;47.96;102227.16;5056618;28;45518;-54
2021/10/12 08:47:26;;;;;;;;;4.67;4.67;;;;;18.46;47.85;102227.16;5056757;28;45251;-47
2021/10/12 08:49:52;;;;;;;;;10.00;5.33;;;;;18.45;48.12;102222.69;5056662;28;45529;-48
2021/10/12 08:52:20;;;;;;;;;5.00;5.00;;;;;18.46;47.91;102219.16;5056614;28;46168;-56
2021/10/12 08:54:46;;;;;;;;;8.67;6.00;;;;;18.45;48.12;102214.72;5056426;28;45512;-49
2021/10/12 08:57:11;;;;;;;;;5.00;5.00;;;;;18.45;47.96;102212.06;5056711;28;45365;-52
2021/10/12 08:59:37;;;;;;;;;5.00;5.00;;;;;18.44;48.02;102215.59;5056113;28;45472;-47
2021/10/12 09:02:05;;;;;;;;;5.33;4.67;;;;;18.45;47.78;102212.06;5055934;28;47403;-49
2021/10/12 09:04:39;;;;;;;;;4.67;4.67;;;;;18.46;47.96;102213.84;5056428;28;45503;-49
2021/10/12 09:07:18;;;;;;;;;5.00;5.00;;;;;18.45;48.17;102206.72;5055549;28;45267;-48
2021/10/12 09:09:44;;;;;;;;;10.67;6.00;;;;;18.44;47.83;102207.63;5056232;28;45525;-54
2021/10/12 09:12:10;;;;;;;;;8.33;6.67;;;;;18.44;48.04;102204.97;5055906;28;46340;-53
2021/10/12 09:14:59;;;;;;;;;7.00;5.00;;;;;18.44;48.12;102199.63;5056173;28;45219;-52
2021/10/12 09:17:32;;;;;;;;;8.33;5.33;;;;;18.44;47.93;102199.63;5056430;28;45236;-48
2021/10/12 09:19:59;;;;;;;;;6.00;5.00;;;;;18.43;48.13;102193.41;5056229;28;45477;-53
2021/10/12 09:22:24;;;;;;;;;7.00;5.00;;;;;18.42;48.21;102191.63;5056017;28;46092;-53
2021/10/12 09:24:51;;;;;;;;;6.67;5.67;;;;;18.42;48.23;102188.97;5055973;28;45256;-47
2021/10/12 09:27:19;;;;;;;;;5.00;5.00;;;;;18.42;48.07;102191.63;5056417;28;45390;-47
2021/10/12 09:32:10;;;;;;;;;9.67;6.33;;;;;18.42;47.87;102194.31;5055726;28;45973;-46
2021/10/12 09:34:38;;;;;;;;;8.33;5.67;;;;;18.41;48.07;102184.53;5055611;28;45291;-46
2021/10/12 09:37:06;;;;;;;;;5.00;5.00;;;;;18.40;48.23;102185.41;5055857;28;45330;-47
2021/10/12 09:39:37;;;;;;;;;5.33;5.33;;;;;18.40;47.94;102188.94;5056130;28;45444;-51
2021/10/12 09:42:05;;;;;;;;;6.00;6.00;;;;;18.40;47.96;102188.94;5055723;28;47290;-51
2021/10/12 09:44:31;;;;;;;;;8.33;7.00;;;;;18.40;47.97;102183.63;5055712;28;45493;-50
2021/10/12 09:47:05;;;;;;;;;7.67;6.00;;;;;18.41;48.00;102179.19;5055792;28;45296;-48
2021/10/12 09:49:31;;;;;;;;;5.67;5.67;;;;;18.39;48.04;102181.84;5056003;28;45415;-51
2021/10/12 09:52:00;;;;;;;;;8.00;6.33;;;;;18.39;48.09;102181.84;5055306;28;46926;-47
2021/10/12 09:54:37;;;;;;;;;7.00;7.00;;;;;18.40;47.80;102178.28;5055555;28;45371;-52
2021/10/12 09:57:05;;;;;;;;;6.33;6.00;;;;;18.39;48.09;102179.19;5055631;28;45280;-49
2021/10/12 09:59:31;;;;;;;;;6.00;6.00;;;;;18.38;48.07;102180.06;5056041;28;45457;-48
2021/10/12 10:01:58;;;;;;;;;5.67;5.33;;;;;18.39;47.82;102176.53;5055484;28;45458;-52
2021/10/12 10:04:25;;;;;;;;;6.00;6.00;;;;;18.38;48.14;102180.06;5055615;28;45322;-51
2021/10/12 10:06:53;;;;;;;;;9.33;6.33;;;;;18.40;48.31;102182.75;5055729;28;45217;-54
2021/10/12 10:09:22;;;;;;;;;6.00;6.00;;;;;18.38;48.30;102163.22;5056006;28;45483;-53
2021/10/12 10:11:49;;;;;;;;;12.00;8.00;;;;;18.38;48.30;102171.19;5055642;28;46372;-47
2021/10/12 10:14:16;;;;;;;;;8.00;7.00;;;;;18.38;48.09;102174.72;5058971;28;45386;-50
2021/10/12 10:17:07;;;;;;;;;7.67;6.67;;;;;18.38;48.22;102169.41;5058909;28;45264;-48
2021/10/12 10:19:35;;;;;;;;;9.33;9.33;;;;;18.38;48.01;102157.88;5054249;28;45605;-46
2021/10/12 10:22:03;;;;;;;;;7.00;7.00;;;;;18.37;48.25;102159.66;5058735;28;46178;-49
2021/10/12 10:24:34;;;;;;;;;7.00;6.00;;;;;18.37;48.21;102161.41;5058841;28;45339;-51
2021/10/12 10:27:00;;;;;;;;;8.67;8.00;;;;;18.37;48.25;102156.09;5058979;28;45427;-51
2021/10/12 10:29:37;;;;;;;;;9.00;6.33;;;;;18.37;48.15;102158.75;5058918;28;45261;-48
2021/10/12 10:32:13;;;;;;;;;9.00;9.00;;;;;18.37;48.24;102151.66;5058134;28;46234;-51
2021/10/12 10:34:42;;;;;;;;;9.00;9.00;;;;;18.35;48.44;102148.09;5058485;28;45330;-55
2021/10/12 10:37:17;;;;;;;;;8.67;8.00;;;;;18.36;48.21;102144.53;5058688;28;45408;-53
2021/10/12 10:39:44;;;;;;;;;9.00;9.00;;;;;18.35;48.40;102137.44;5058889;28;45438;-54
2021/10/12 10:42:25;;;;;;;;;11.67;9.67;;;;;18.36;48.22;102133.91;5058214;28;47039;-54
2021/10/12 10:44:53;;;;;;;;;13.67;11.33;;;;;18.35;48.36;102129.47;5058629;28;45492;-49
2021/10/12 10:47:41;;;;;;;;;12.00;11.33;;;;;18.35;48.24;102129.47;5058560;28;45312;-48
2021/10/12 10:50:09;;;;;;;;;15.00;14.00;;;;;18.34;48.57;102127.66;5058670;28;45467;-52
2021/10/12 10:52:44;;;;;;;;;15.33;15.33;;;;;18.34;48.26;102125.00;5058091;28;46102;-50
2021/10/12 10:55:10;;;;;;;;;19.67;17.33;;;;;18.34;48.61;102125.00;5058134;28;45330;-49
2021/10/12 10:57:36;;;;;;;;;17.67;15.67;;;;;18.34;48.48;102124.13;5058361;28;45479;-56
2021/10/12 11:00:11;;;;;;;;;19.00;18.00;;;;;18.34;48.40;102124.13;5058753;28;45384;-53
2021/10/12 11:02:44;;;;;;;;;21.75;20.75;;;;;18.33;48.49;102125.91;5058221;28;46209;-54
2021/10/12 11:05:09;;;;;;;;;20.67;18.33;;;;;18.34;48.40;102124.13;5057953;28;45170;-49
2021/10/12 11:07:35;;;;;;;;;20.00;20.00;;;;;18.33;48.52;102120.56;5058303;28;45481;-53
2021/10/12 11:10:00;;;;;;;;;21.33;18.67;;;;;18.33;48.63;102115.25;5058348;28;45410;-55
2021/10/12 11:12:28;;;;;;;;;21.00;19.00;;;;;18.33;48.36;102117.91;5057935;28;47262;-53
2021/10/12 11:15:02;;;;;;;;;21.33;21.33;;;;;18.33;48.60;102117.91;5058119;28;45409;-50
2021/10/12 11:17:28;;;;;;;;;20.33;17.33;;;;;18.34;48.57;102116.16;5058292;28;45882;-56
2021/10/12 11:19:54;;;;;;;;;18.00;18.00;;;;;18.33;48.66;102115.25;5058061;28;45355;-47
2021/10/12 11:22:20;;;;;;;;;16.00;15.00;;;;;18.32;48.38;102116.13;5057749;28;47334;-47
2021/10/12 11:24:45;;;;;;;;;18.33;18.33;;;;;18.31;48.60;102111.69;5057390;28;45244;-57